createdAt,value
2022-08-02T00:00:24.343Z,17.25
2022-08-02T00:01:24.435Z,17.21
2022-08-02T00:02:24.377Z,17.19
2022-08-02T00:03:24.676Z,17.23
2022-08-02T00:04:24.418Z,17.18
2022-08-02T00:05:24.435Z,17.14
2022-08-02T00:06:24.454Z,17.11
2022-08-02T00:07:24.472Z,17.06
2022-08-02T00:08:24.486Z,17.03
2022-08-02T00:09:24.505Z,17.04
2022-08-02T00:10:24.527Z,17.04
2022-08-02T00:11:24.542Z,16.89
2022-08-02T00:12:24.573Z,16.91
2022-08-02T00:13:24.574Z,16.83
2022-08-02T00:14:24.599Z,16.86
2022-08-02T00:15:24.614Z,16.76
2022-08-02T00:16:37.431Z,16.70
2022-08-02T00:17:24.659Z,16.61
2022-08-02T00:18:24.682Z,16.60
2022-08-02T00:19:24.690Z,16.57
2022-08-02T00:20:24.709Z,16.60
2022-08-02T00:21:24.723Z,16.58
2022-08-02T00:22:24.754Z,16.58
2022-08-02T00:23:24.755Z,16.57
2022-08-02T00:24:30.595Z,16.49
2022-08-02T00:25:24.790Z,16.53
2022-08-02T00:26:24.813Z,16.49
2022-08-02T00:27:24.830Z,16.45
2022-08-02T00:28:27.392Z,16.42
2022-08-02T00:29:24.885Z,16.45
2022-08-02T00:30:24.885Z,16.45
2022-08-02T00:31:24.996Z,16.39
2022-08-02T00:32:25.020Z,16.42
2022-08-02T00:34:27.546Z,16.38
2022-08-02T00:34:29.005Z,16.38
2022-08-02T00:35:24.970Z,16.46
2022-08-02T00:36:24.986Z,16.33
2022-08-02T00:37:25.006Z,16.35
2022-08-02T00:38:25.023Z,16.25
2022-08-02T00:39:33.514Z,16.27
2022-08-02T00:40:25.063Z,16.31
2022-08-02T00:41:25.079Z,16.30
2022-08-02T00:42:25.098Z,16.23
2022-08-02T00:43:25.112Z,16.25
2022-08-02T00:44:25.129Z,16.28
2022-08-02T00:46:02.068Z,16.21
2022-08-02T00:46:25.171Z,16.20
2022-08-02T00:47:25.180Z,16.09
2022-08-02T00:48:25.298Z,16.14
2022-08-02T00:49:25.288Z,16.15
2022-08-02T00:50:25.234Z,16.20
2022-08-02T00:51:25.251Z,16.14
2022-08-02T00:52:25.271Z,16.24
2022-08-02T00:53:25.288Z,16.21
2022-08-02T00:54:25.307Z,16.31
2022-08-02T00:55:30.932Z,16.31
2022-08-02T00:56:25.337Z,16.30
2022-08-02T00:57:25.357Z,16.24
2022-08-02T00:58:25.373Z,16.31
2022-08-02T00:59:25.457Z,16.24
2022-08-02T01:00:25.412Z,16.30
2022-08-02T01:01:25.539Z,16.28
2022-08-02T01:02:25.543Z,16.28
2022-08-02T01:03:25.458Z,16.23
2022-08-02T01:04:30.447Z,16.24
2022-08-02T01:05:25.495Z,16.34
2022-08-02T01:06:25.516Z,16.17
2022-08-02T01:07:25.532Z,16.17
2022-08-02T01:08:29.355Z,16.15
2022-08-02T01:09:25.566Z,16.14
2022-08-02T01:10:25.585Z,16.15
2022-08-02T01:11:25.596Z,16.20
2022-08-02T01:12:25.620Z,16.08
2022-08-02T01:13:25.638Z,16.17
2022-08-02T01:14:25.653Z,16.23
2022-08-02T01:15:35.578Z,16.25
2022-08-02T01:16:25.685Z,16.24
2022-08-02T01:17:25.712Z,16.24
2022-08-02T01:18:25.720Z,16.34
2022-08-02T01:19:25.738Z,16.39
2022-08-02T01:20:25.756Z,16.34
2022-08-02T01:21:25.775Z,16.41
2022-08-02T01:22:58.075Z,16.42
2022-08-02T01:23:25.806Z,16.45
2022-08-02T01:24:25.831Z,16.45
2022-08-02T01:25:25.848Z,16.42
2022-08-02T01:26:25.863Z,16.41
2022-08-02T01:27:25.878Z,16.38
2022-08-02T01:28:25.895Z,16.34
2022-08-02T01:29:25.914Z,16.42
2022-08-02T01:30:25.930Z,16.38
2022-08-02T01:31:26.045Z,16.52
2022-08-02T01:32:25.985Z,16.41
2022-08-02T01:33:25.983Z,16.39
2022-08-02T01:34:25.998Z,16.48
2022-08-02T01:35:26.016Z,16.43
2022-08-02T01:36:26.038Z,16.49
2022-08-02T01:37:26.048Z,16.49
2022-08-02T01:38:26.067Z,16.53
2022-08-02T01:39:27.448Z,16.60
2022-08-02T01:40:26.103Z,16.60
2022-08-02T01:41:26.126Z,16.60
2022-08-02T01:42:26.137Z,16.53
2022-08-02T01:43:26.152Z,16.60
2022-08-02T01:44:27.108Z,16.57
2022-08-02T01:45:26.192Z,16.60
2022-08-02T01:46:26.210Z,16.57
2022-08-02T01:47:26.225Z,16.64
2022-08-02T01:48:26.250Z,16.57
2022-08-02T01:49:26.330Z,16.49
2022-08-02T01:50:26.383Z,16.49
2022-08-02T01:51:26.296Z,16.49
2022-08-02T01:52:26.317Z,16.49
2022-08-02T01:53:26.326Z,16.49
2022-08-02T01:54:26.345Z,16.43
2022-08-02T01:55:28.210Z,16.39
2022-08-02T01:56:26.381Z,16.42
2022-08-02T01:57:26.399Z,16.38
2022-08-02T01:58:26.421Z,16.41
2022-08-02T01:59:26.434Z,16.43
2022-08-02T02:00:26.451Z,16.38
2022-08-02T02:01:26.534Z,16.42
2022-08-02T02:02:31.333Z,16.41
2022-08-02T02:03:26.502Z,16.38
2022-08-02T02:04:26.521Z,16.31
2022-08-02T02:05:26.642Z,16.27
2022-08-02T02:06:26.554Z,16.25
2022-08-02T02:07:26.572Z,16.27
2022-08-02T02:08:27.682Z,16.31
2022-08-02T02:09:26.611Z,16.30
2022-08-02T02:10:26.626Z,16.25
2022-08-02T02:12:14.451Z,16.31
2022-08-02T02:12:26.663Z,16.31
2022-08-02T02:13:28.775Z,16.17
2022-08-02T02:14:26.698Z,16.11
2022-08-02T02:15:26.716Z,16.07
2022-08-02T02:16:26.728Z,16.04
2022-08-02T02:18:10.952Z,16.00
2022-08-02T02:18:26.765Z,16.05
2022-08-02T02:19:26.779Z,16.04
2022-08-02T02:20:26.804Z,16.08
2022-08-02T02:21:26.819Z,16.01
2022-08-02T02:22:26.837Z,16.11
2022-08-02T02:23:26.852Z,15.93
2022-08-02T02:24:26.870Z,16.02
2022-08-02T02:25:34.281Z,15.90
2022-08-02T02:26:31.466Z,15.93
2022-08-02T02:27:26.919Z,15.93
2022-08-02T02:28:26.937Z,15.93
2022-08-02T02:29:26.957Z,15.96
2022-08-02T02:30:26.976Z,16.00
2022-08-02T02:31:26.988Z,15.96
2022-08-02T02:32:27.108Z,16.02
2022-08-02T02:33:29.474Z,15.94
2022-08-02T02:34:27.039Z,15.96
2022-08-02T02:35:27.055Z,15.97
2022-08-02T02:36:27.072Z,15.97
2022-08-02T02:37:27.092Z,15.89
2022-08-02T02:38:27.113Z,15.96
2022-08-02T02:39:27.123Z,15.97
2022-08-02T02:40:27.143Z,16.00
2022-08-02T02:41:27.160Z,15.97
2022-08-02T02:42:27.190Z,16.01
2022-08-02T02:43:27.199Z,16.02
2022-08-02T02:44:27.212Z,16.01
2022-08-02T02:45:27.230Z,15.97
2022-08-02T02:46:27.261Z,15.97
2022-08-02T02:47:40.247Z,15.96
2022-08-02T02:48:27.289Z,15.94
2022-08-02T02:49:27.383Z,16.07
2022-08-02T02:50:27.319Z,15.96
2022-08-02T02:51:27.333Z,15.93
2022-08-02T02:52:27.351Z,15.92
2022-08-02T02:53:27.367Z,16.00
2022-08-02T02:54:33.517Z,15.97
2022-08-02T02:55:27.401Z,15.90
2022-08-02T02:56:27.418Z,15.83
2022-08-02T02:57:27.434Z,15.86
2022-08-02T02:58:28.757Z,15.86
2022-08-02T02:59:27.468Z,15.84
2022-08-02T03:00:27.492Z,15.80
2022-08-02T03:01:56.071Z,15.84
2022-08-02T03:02:27.520Z,15.82
2022-08-02T03:03:27.534Z,15.78
2022-08-02T03:04:27.554Z,15.83
2022-08-02T03:05:27.569Z,15.83
2022-08-02T03:06:27.589Z,15.84
2022-08-02T03:07:27.620Z,15.87
2022-08-02T03:08:27.626Z,15.86
2022-08-02T03:09:27.640Z,15.78
2022-08-02T03:10:27.657Z,15.71
2022-08-02T03:11:27.776Z,15.74
2022-08-02T03:12:31.963Z,15.62
2022-08-02T03:13:33.075Z,15.67
2022-08-02T03:14:27.721Z,15.71
2022-08-02T03:15:27.743Z,15.68
2022-08-02T03:16:27.769Z,15.67
2022-08-02T03:17:27.782Z,15.64
2022-08-02T03:18:27.796Z,15.64
2022-08-02T03:19:33.095Z,15.57
2022-08-02T03:20:27.826Z,15.65
2022-08-02T03:21:27.846Z,15.59
2022-08-02T03:22:27.865Z,15.65
2022-08-02T03:23:27.883Z,15.64
2022-08-02T03:24:28.536Z,15.59
2022-08-02T03:25:27.911Z,15.57
2022-08-02T03:26:27.932Z,15.57
2022-08-02T03:27:27.947Z,15.62
2022-08-02T03:28:27.967Z,15.64
2022-08-02T03:29:30.411Z,15.57
2022-08-02T03:30:28.010Z,15.67
2022-08-02T03:31:28.011Z,15.68
2022-08-02T03:32:28.030Z,15.60
2022-08-02T03:33:28.048Z,15.56
2022-08-02T03:34:28.066Z,15.60
2022-08-02T03:35:28.087Z,15.62
2022-08-02T03:36:28.105Z,15.59
2022-08-02T03:37:28.117Z,15.64
2022-08-02T03:38:29.113Z,15.53
2022-08-02T03:39:28.149Z,15.54
2022-08-02T03:40:28.171Z,15.57
2022-08-02T03:41:28.183Z,15.59
2022-08-02T03:42:28.308Z,15.62
2022-08-02T03:43:28.642Z,15.62
2022-08-02T03:44:28.241Z,15.57
2022-08-02T03:45:28.252Z,15.49
2022-08-02T03:46:28.269Z,15.53
2022-08-02T03:47:28.288Z,15.49
2022-08-02T03:48:34.358Z,15.53
2022-08-02T03:49:28.399Z,15.54
2022-08-02T03:50:28.348Z,15.39
2022-08-02T03:51:28.356Z,15.47
2022-08-02T03:52:28.372Z,15.44
2022-08-02T03:53:28.392Z,15.54
2022-08-02T03:54:33.080Z,15.53
2022-08-02T03:55:28.422Z,15.51
2022-08-02T03:56:28.442Z,15.47
2022-08-02T03:57:28.457Z,15.57
2022-08-02T03:58:28.475Z,15.50
2022-08-02T03:59:28.497Z,15.50
2022-08-02T04:00:28.510Z,15.50
2022-08-02T04:01:28.593Z,15.49
2022-08-02T04:02:28.543Z,15.49
2022-08-02T04:03:28.561Z,15.54
2022-08-02T04:04:28.580Z,15.54
2022-08-02T04:05:28.594Z,15.50
2022-08-02T04:06:28.640Z,15.57
2022-08-02T04:08:33.407Z,15.46
2022-08-02T04:08:35.688Z,15.43
2022-08-02T04:09:28.700Z,15.35
2022-08-02T04:10:28.685Z,15.39
2022-08-02T04:11:28.715Z,15.32
2022-08-02T04:12:28.712Z,15.32
2022-08-02T04:13:31.879Z,15.36
2022-08-02T04:14:28.752Z,15.36
2022-08-02T04:15:28.762Z,15.32
2022-08-02T04:16:28.780Z,15.39
2022-08-02T04:17:28.795Z,15.43
2022-08-02T04:18:28.815Z,15.38
2022-08-02T04:19:28.832Z,15.39
2022-08-02T04:20:28.850Z,15.44
2022-08-02T04:21:48.606Z,15.41
2022-08-02T04:22:28.884Z,15.46
2022-08-02T04:23:28.900Z,15.43
2022-08-02T04:24:28.915Z,15.39
2022-08-02T04:25:34.371Z,15.43
2022-08-02T04:26:28.947Z,15.39
2022-08-02T04:28:15.184Z,15.36
2022-08-02T04:28:29.114Z,15.23
2022-08-02T04:29:28.999Z,15.32
2022-08-02T04:30:29.014Z,15.28
2022-08-02T04:31:29.034Z,15.28
2022-08-02T04:32:29.054Z,15.32
2022-08-02T04:33:29.066Z,15.31
2022-08-02T04:34:29.085Z,15.29
2022-08-02T04:35:29.100Z,15.27
2022-08-02T04:36:31.435Z,15.21
2022-08-02T04:37:29.132Z,15.21
2022-08-02T04:38:29.153Z,15.17
2022-08-02T04:39:29.170Z,15.20
2022-08-02T04:40:29.185Z,15.19
2022-08-02T04:41:29.202Z,15.27
2022-08-02T04:42:29.222Z,15.19
2022-08-02T04:43:29.236Z,15.17
2022-08-02T04:44:29.252Z,15.25
2022-08-02T04:45:29.269Z,15.20
2022-08-02T04:46:29.297Z,15.23
2022-08-02T04:48:02.033Z,15.16
2022-08-02T04:48:29.320Z,15.17
2022-08-02T04:49:29.380Z,15.19
2022-08-02T04:50:29.351Z,15.17
2022-08-02T04:51:37.850Z,15.17
2022-08-02T04:52:29.384Z,15.14
2022-08-02T04:53:29.399Z,15.14
2022-08-02T04:54:29.418Z,15.17
2022-08-02T04:55:29.495Z,15.16
2022-08-02T04:56:29.450Z,15.19
2022-08-02T04:57:29.470Z,15.13
2022-08-02T04:58:43.801Z,15.11
2022-08-02T04:59:29.507Z,15.11
2022-08-02T05:00:29.537Z,15.17
2022-08-02T05:01:29.540Z,15.16
2022-08-02T05:02:29.550Z,15.16
2022-08-02T05:03:29.577Z,15.13
2022-08-02T05:04:29.587Z,15.13
2022-08-02T05:05:29.604Z,15.25
2022-08-02T05:06:29.622Z,15.19
2022-08-02T05:07:29.698Z,15.19
2022-08-02T05:08:29.664Z,15.21
2022-08-02T05:09:29.674Z,15.16
2022-08-02T05:10:29.690Z,15.23
2022-08-02T05:11:34.166Z,15.27
2022-08-02T05:12:29.819Z,15.20
2022-08-02T05:13:29.753Z,15.20
2022-08-02T05:14:29.758Z,15.29
2022-08-02T05:15:33.223Z,15.28
2022-08-02T05:16:30.715Z,15.29
2022-08-02T05:17:29.782Z,15.31
2022-08-02T05:18:29.919Z,15.35
2022-08-02T05:19:29.837Z,15.32
2022-08-02T05:20:29.909Z,15.34
2022-08-02T05:21:29.870Z,15.32
2022-08-02T05:22:29.888Z,15.34
2022-08-02T05:23:29.970Z,15.35
2022-08-02T05:24:30.006Z,15.46
2022-08-02T05:25:30.026Z,15.44
2022-08-02T05:26:30.044Z,15.44
2022-08-02T05:27:30.040Z,15.50
2022-08-02T05:28:29.986Z,15.44
2022-08-02T05:29:30.004Z,15.47
2022-08-02T05:30:30.086Z,15.54
2022-08-02T05:31:30.085Z,15.49
2022-08-02T05:32:30.120Z,15.54
2022-08-02T05:33:30.068Z,15.53
2022-08-02T05:34:30.084Z,15.60
2022-08-02T05:35:30.104Z,15.59
2022-08-02T05:36:30.119Z,15.59
2022-08-02T05:37:31.825Z,15.56
2022-08-02T05:38:30.153Z,15.54
2022-08-02T05:39:31.902Z,15.69
2022-08-02T05:40:30.190Z,15.57
2022-08-02T05:41:30.204Z,15.69
2022-08-02T05:42:30.221Z,15.62
2022-08-02T05:43:30.240Z,15.69
2022-08-02T05:44:30.252Z,15.71
2022-08-02T05:45:30.272Z,15.68
2022-08-02T05:46:30.292Z,15.62
2022-08-02T05:47:30.307Z,15.74
2022-08-02T05:48:32.183Z,15.71
2022-08-02T05:49:30.427Z,15.71
2022-08-02T05:50:30.357Z,15.67
2022-08-02T05:51:30.376Z,15.69
2022-08-02T05:52:30.395Z,15.82
2022-08-02T05:53:30.407Z,15.74
2022-08-02T05:54:30.426Z,15.74
2022-08-02T05:55:30.447Z,15.82
2022-08-02T05:56:30.462Z,15.89
2022-08-02T05:57:30.475Z,15.83
2022-08-02T05:58:30.494Z,15.89
2022-08-02T05:59:30.513Z,15.86
2022-08-02T06:00:30.528Z,15.92
2022-08-02T06:01:30.626Z,15.89
2022-08-02T06:02:30.878Z,15.87
2022-08-02T06:03:30.683Z,15.87
2022-08-02T06:04:30.593Z,15.93
2022-08-02T06:05:30.609Z,15.94
2022-08-02T06:06:30.630Z,16.00
2022-08-02T06:07:30.643Z,15.82
2022-08-02T06:08:30.666Z,15.72
2022-08-02T06:09:30.681Z,15.80
2022-08-02T06:10:30.699Z,15.74
2022-08-02T06:11:30.718Z,15.83
2022-08-02T06:12:30.732Z,15.84
2022-08-02T06:13:30.845Z,15.83
2022-08-02T06:14:30.770Z,15.86
2022-08-02T06:15:30.780Z,15.84
2022-08-02T06:16:31.900Z,15.86
2022-08-02T06:17:30.814Z,15.93
2022-08-02T06:18:30.834Z,15.90
2022-08-02T06:19:30.849Z,15.94
2022-08-02T06:20:30.867Z,16.00
2022-08-02T06:22:33.525Z,16.07
2022-08-02T06:22:35.944Z,16.08
2022-08-02T06:23:30.916Z,16.20
2022-08-02T06:24:30.941Z,16.17
2022-08-02T06:25:49.678Z,16.30
2022-08-02T06:26:30.972Z,16.31
2022-08-02T06:27:30.990Z,16.27
2022-08-02T06:28:31.003Z,16.31
2022-08-02T06:29:33.449Z,16.30
2022-08-02T06:30:31.036Z,16.24
2022-08-02T06:31:31.054Z,16.24
2022-08-02T06:32:31.076Z,16.27
2022-08-02T06:33:31.092Z,16.25
2022-08-02T06:34:31.102Z,16.30
2022-08-02T06:35:31.125Z,16.28
2022-08-02T06:36:31.138Z,16.27
2022-08-02T06:37:31.214Z,16.30
2022-08-02T06:38:31.198Z,16.35
2022-08-02T06:39:31.195Z,16.38
2022-08-02T06:40:31.207Z,16.34
2022-08-02T06:41:31.224Z,16.42
2022-08-02T06:42:31.241Z,16.45
2022-08-02T06:43:31.265Z,16.49
2022-08-02T06:44:48.803Z,16.50
2022-08-02T06:45:31.344Z,16.61
2022-08-02T06:46:54.357Z,16.64
2022-08-02T06:47:31.330Z,16.61
2022-08-02T06:48:31.348Z,16.61
2022-08-02T06:49:53.309Z,16.67
2022-08-02T06:50:31.376Z,16.64
2022-08-02T06:51:31.403Z,16.38
2022-08-02T06:52:31.556Z,16.41
2022-08-02T06:53:31.433Z,16.50
2022-08-02T06:54:31.452Z,16.64
2022-08-02T06:55:31.474Z,16.63
2022-08-02T06:56:31.480Z,16.66
2022-08-02T06:57:31.520Z,16.68
2022-08-02T06:58:31.510Z,16.66
2022-08-02T06:59:31.536Z,16.75
2022-08-02T07:00:31.553Z,16.73
2022-08-02T07:01:39.043Z,16.82
2022-08-02T07:02:31.584Z,16.82
2022-08-02T07:03:31.601Z,16.82
2022-08-02T07:04:31.613Z,16.78
2022-08-02T07:05:31.632Z,16.97
2022-08-02T07:06:31.652Z,16.97
2022-08-02T07:07:31.670Z,16.98
2022-08-02T07:08:31.685Z,16.98
2022-08-02T07:09:31.708Z,16.96
2022-08-02T07:10:31.721Z,16.94
2022-08-02T07:11:31.736Z,16.91
2022-08-02T07:12:31.831Z,16.88
2022-08-02T07:13:31.773Z,16.96
2022-08-02T07:14:32.183Z,17.04
2022-08-02T07:15:31.807Z,17.14
2022-08-02T07:16:31.835Z,17.15
2022-08-02T07:17:31.840Z,17.23
2022-08-02T07:18:31.857Z,17.31
2022-08-02T07:19:37.452Z,17.46
2022-08-02T07:20:31.895Z,17.38
2022-08-02T07:21:56.648Z,17.51
2022-08-02T07:22:31.932Z,17.41
2022-08-02T07:23:31.944Z,17.51
2022-08-02T07:24:31.961Z,17.55
2022-08-02T07:26:02.411Z,17.52
2022-08-02T07:26:31.994Z,17.46
2022-08-02T07:27:32.016Z,17.54
2022-08-02T07:28:32.052Z,17.75
2022-08-02T07:29:33.578Z,17.70
2022-08-02T07:30:32.065Z,17.70
2022-08-02T07:31:32.083Z,17.78
2022-08-02T07:32:32.139Z,17.84
2022-08-02T07:33:37.452Z,18.02
2022-08-02T07:34:32.140Z,18.10
2022-08-02T07:35:32.167Z,18.10
2022-08-02T07:36:32.226Z,18.11
2022-08-02T07:37:53.173Z,18.27
2022-08-02T07:38:32.240Z,18.41
2022-08-02T07:39:32.219Z,18.48
2022-08-02T07:40:32.242Z,18.41
2022-08-02T07:41:32.265Z,18.35
2022-08-02T07:42:32.276Z,18.37
2022-08-02T07:43:32.291Z,18.33
2022-08-02T07:44:32.311Z,18.27
2022-08-02T07:45:32.342Z,18.35
2022-08-02T07:46:32.345Z,18.29
2022-08-02T07:47:32.356Z,18.37
2022-08-02T07:48:32.382Z,18.36
2022-08-02T07:49:32.488Z,18.41
2022-08-02T07:50:32.412Z,18.42
2022-08-02T07:51:32.433Z,18.52
2022-08-02T07:52:32.454Z,18.63
2022-08-02T07:53:50.683Z,18.62
2022-08-02T07:54:32.485Z,18.66
2022-08-02T07:55:39.361Z,18.60
2022-08-02T07:56:32.521Z,18.66
2022-08-02T07:57:32.549Z,18.65
2022-08-02T07:58:32.557Z,18.66
2022-08-02T07:59:32.577Z,18.67
2022-08-02T08:00:32.591Z,18.55
2022-08-02T08:01:32.679Z,18.70
2022-08-02T08:02:32.625Z,18.42
2022-08-02T08:03:32.646Z,18.32
2022-08-02T08:04:32.667Z,18.26
2022-08-02T08:05:32.677Z,18.08
2022-08-02T08:06:32.698Z,18.14
2022-08-02T08:07:32.713Z,17.93
2022-08-02T08:08:32.835Z,17.92
2022-08-02T08:09:32.750Z,17.96
2022-08-02T08:10:32.769Z,17.59
2022-08-02T08:11:32.789Z,17.56
2022-08-02T08:12:32.808Z,17.54
2022-08-02T08:13:32.818Z,17.81
2022-08-02T08:14:32.837Z,18.35
2022-08-02T08:15:32.860Z,18.80
2022-08-02T08:16:32.877Z,18.42
2022-08-02T08:17:32.886Z,18.62
2022-08-02T08:18:32.907Z,18.48
2022-08-02T08:19:50.303Z,18.62
2022-08-02T08:20:32.947Z,18.82
2022-08-02T08:21:32.961Z,18.99
2022-08-02T08:22:32.976Z,18.81
2022-08-02T08:23:32.993Z,18.70
2022-08-02T08:24:33.011Z,18.76
2022-08-02T08:25:33.034Z,18.92
2022-08-02T08:26:33.048Z,19.07
2022-08-02T08:27:33.062Z,19.26
2022-08-02T08:28:33.082Z,19.19
2022-08-02T08:29:33.104Z,19.06
2022-08-02T08:30:33.115Z,19.00
2022-08-02T08:31:33.140Z,19.40
2022-08-02T08:32:33.153Z,19.32
2022-08-02T08:33:33.167Z,19.44
2022-08-02T08:34:33.185Z,19.61
2022-08-02T08:35:33.204Z,19.48
2022-08-02T08:36:33.231Z,19.50
2022-08-02T08:37:33.237Z,19.71
2022-08-02T08:38:33.262Z,19.54
2022-08-02T08:39:33.276Z,19.69
2022-08-02T08:40:33.296Z,19.63
2022-08-02T08:41:33.313Z,19.46
2022-08-02T08:42:33.329Z,19.36
2022-08-02T08:43:33.350Z,19.59
2022-08-02T08:44:33.367Z,19.47
2022-08-02T08:45:33.386Z,19.51
2022-08-02T08:46:33.403Z,19.59
2022-08-02T08:47:34.358Z,19.40
2022-08-02T08:48:33.439Z,19.25
2022-08-02T08:49:33.552Z,19.02
2022-08-02T08:50:33.476Z,19.31
2022-08-02T08:51:33.493Z,19.07
2022-08-02T08:52:33.513Z,19.28
2022-08-02T08:53:36.911Z,19.31
2022-08-02T08:54:33.551Z,19.48
2022-08-02T08:55:33.575Z,19.71
2022-08-02T08:56:33.591Z,19.74
2022-08-02T08:57:33.606Z,19.88
2022-08-02T08:58:33.625Z,19.88
2022-08-02T08:59:39.291Z,19.86
2022-08-02T09:00:33.670Z,19.87
2022-08-02T09:01:49.820Z,19.86
2022-08-02T09:02:33.705Z,19.74
2022-08-02T09:03:33.829Z,20.05
2022-08-02T09:04:33.739Z,20.24
2022-08-02T09:05:33.751Z,20.67
2022-08-02T09:06:33.770Z,20.38
2022-08-02T09:07:33.792Z,20.13
2022-08-02T09:08:33.814Z,20.17
2022-08-02T09:09:33.827Z,20.24
2022-08-02T09:10:33.846Z,20.31
2022-08-02T09:11:33.864Z,20.51
2022-08-02T09:12:33.883Z,20.59
2022-08-02T09:13:45.240Z,20.47
2022-08-02T09:14:33.919Z,20.18
2022-08-02T09:15:33.940Z,20.21
2022-08-02T09:16:33.963Z,20.16
2022-08-02T09:17:33.978Z,20.16
2022-08-02T09:18:34.002Z,20.61
2022-08-02T09:19:34.019Z,20.91
2022-08-02T09:20:34.038Z,21.04
2022-08-02T09:21:34.057Z,20.98
2022-08-02T09:22:34.073Z,20.94
2022-08-02T09:23:34.093Z,20.99
2022-08-02T09:24:34.117Z,21.22
2022-08-02T09:25:34.133Z,21.14
2022-08-02T09:26:34.154Z,21.24
2022-08-02T09:27:34.175Z,21.13
2022-08-02T09:28:34.192Z,21.34
2022-08-02T09:29:34.551Z,21.44
2022-08-02T09:30:34.230Z,21.58
2022-08-02T09:31:34.250Z,21.77
2022-08-02T09:32:34.272Z,21.65
2022-08-02T09:33:34.285Z,21.88
2022-08-02T09:34:34.379Z,22.09
2022-08-02T09:36:06.103Z,22.25
2022-08-02T09:36:34.352Z,22.25
2022-08-02T09:37:34.372Z,22.07
2022-08-02T09:38:34.388Z,22.35
2022-08-02T09:39:34.412Z,22.25
2022-08-02T09:40:34.433Z,22.42
2022-08-02T09:41:34.451Z,22.35
2022-08-02T09:42:34.469Z,22.49
2022-08-02T09:43:34.493Z,22.55
2022-08-02T09:44:34.509Z,22.73
2022-08-02T09:45:34.529Z,22.64
2022-08-02T09:46:34.555Z,22.62
2022-08-02T09:47:37.348Z,22.05
2022-08-02T09:48:34.594Z,21.90
2022-08-02T09:49:34.673Z,21.82
2022-08-02T09:50:34.629Z,22.17
2022-08-02T09:51:34.656Z,22.27
2022-08-02T09:52:37.363Z,22.54
2022-08-02T09:53:34.697Z,22.14
2022-08-02T09:54:34.715Z,21.40
2022-08-02T09:55:34.736Z,21.80
2022-08-02T09:56:35.415Z,21.92
2022-08-02T09:57:34.774Z,22.37
2022-08-02T09:58:34.794Z,22.21
2022-08-02T09:59:34.819Z,21.94
2022-08-02T10:00:51.874Z,21.59
2022-08-02T10:01:36.996Z,21.31
2022-08-02T10:02:35.220Z,21.07
2022-08-02T10:03:37.168Z,21.19
2022-08-02T10:04:52.127Z,21.37
2022-08-02T10:05:37.278Z,21.65
2022-08-02T10:06:34.955Z,22.07
2022-08-02T10:07:34.976Z,22.35
2022-08-02T10:08:35.010Z,22.05
2022-08-02T10:09:35.010Z,22.27
2022-08-02T10:10:35.035Z,22.51
2022-08-02T10:11:35.057Z,22.47
2022-08-02T10:12:35.070Z,22.37
2022-08-02T10:13:35.096Z,22.54
2022-08-02T10:14:35.116Z,22.42
2022-08-02T10:15:35.135Z,22.72
2022-08-02T10:16:35.159Z,22.58
2022-08-02T10:17:35.175Z,23.09
2022-08-02T10:18:39.277Z,23.01
2022-08-02T10:20:00.470Z,22.45
2022-08-02T10:20:35.335Z,22.65
2022-08-02T10:21:35.250Z,22.64
2022-08-02T10:22:35.272Z,22.80
2022-08-02T10:23:35.293Z,22.90
2022-08-02T10:24:35.314Z,23.05
2022-08-02T10:25:35.336Z,22.49
2022-08-02T10:26:35.351Z,22.72
2022-08-02T10:28:02.440Z,22.80
2022-08-02T10:28:35.399Z,22.95
2022-08-02T10:29:53.416Z,22.97
2022-08-02T10:30:35.436Z,23.31
2022-08-02T10:31:35.458Z,23.42
2022-08-02T10:32:35.480Z,23.40
2022-08-02T10:33:35.500Z,23.32
2022-08-02T10:34:35.520Z,23.01
2022-08-02T10:35:35.545Z,22.75
2022-08-02T10:36:35.561Z,22.43
2022-08-02T10:37:35.580Z,22.55
2022-08-02T10:38:35.603Z,22.73
2022-08-02T10:39:35.627Z,22.83
2022-08-02T10:40:35.648Z,22.95
2022-08-02T10:41:35.667Z,23.05
2022-08-02T10:42:35.689Z,23.01
2022-08-02T10:43:35.707Z,23.12
2022-08-02T10:44:35.735Z,23.15
2022-08-02T10:45:35.760Z,22.95
2022-08-02T10:46:35.819Z,22.73
2022-08-02T10:47:35.800Z,22.57
2022-08-02T10:48:35.813Z,22.21
2022-08-02T10:49:39.740Z,21.91
2022-08-02T10:50:35.860Z,22.31
2022-08-02T10:51:35.966Z,22.60
2022-08-02T10:52:35.909Z,22.80
2022-08-02T10:53:35.922Z,22.95
2022-08-02T10:54:35.952Z,22.95
2022-08-02T10:55:35.964Z,23.07
2022-08-02T10:56:35.986Z,22.98
2022-08-02T10:57:36.008Z,22.80
2022-08-02T10:58:36.026Z,23.19
2022-08-02T10:59:36.301Z,23.80
2022-08-02T11:00:36.110Z,23.78
2022-08-02T11:01:38.525Z,24.21
2022-08-02T11:02:36.112Z,24.57
2022-08-02T11:03:39.295Z,24.42
2022-08-02T11:04:36.224Z,24.02
2022-08-02T11:05:42.697Z,24.28
2022-08-02T11:06:36.204Z,23.69
2022-08-02T11:07:36.220Z,24.49
2022-08-02T11:08:36.245Z,24.34
2022-08-02T11:09:36.265Z,24.67
2022-08-02T11:10:36.290Z,24.96
2022-08-02T11:11:53.924Z,24.64
2022-08-02T11:12:36.333Z,24.64
2022-08-02T11:13:36.352Z,24.57
2022-08-02T11:14:36.376Z,24.61
2022-08-02T11:15:36.396Z,25.15
2022-08-02T11:16:36.415Z,24.90
2022-08-02T11:17:38.205Z,25.21
2022-08-02T11:18:36.467Z,24.96
2022-08-02T11:19:36.485Z,24.45
2022-08-02T11:20:36.507Z,24.68
2022-08-02T11:21:36.527Z,24.76
2022-08-02T11:22:36.553Z,24.80
2022-08-02T11:23:45.052Z,24.80
2022-08-02T11:24:36.598Z,24.58
2022-08-02T11:26:02.619Z,24.49
2022-08-02T11:26:36.661Z,24.53
2022-08-02T11:27:36.668Z,24.12
2022-08-02T11:28:36.741Z,24.42
2022-08-02T11:29:38.332Z,24.27
2022-08-02T11:30:36.731Z,24.32
2022-08-02T11:31:36.752Z,24.42
2022-08-02T11:32:36.789Z,25.05
2022-08-02T11:33:36.828Z,25.40
2022-08-02T11:34:38.322Z,24.77
2022-08-02T11:35:36.846Z,25.23
2022-08-02T11:36:36.870Z,24.90
2022-08-02T11:37:36.891Z,25.15
2022-08-02T11:38:36.917Z,24.65
2022-08-02T11:39:36.932Z,24.50
2022-08-02T11:40:36.961Z,23.87
2022-08-02T11:41:46.881Z,23.17
2022-08-02T11:42:37.001Z,23.54
2022-08-02T11:43:37.057Z,24.34
2022-08-02T11:44:37.051Z,24.99
2022-08-02T11:45:37.071Z,25.46
2022-08-02T11:46:37.094Z,25.62
2022-08-02T11:47:37.119Z,25.20
2022-08-02T11:48:37.137Z,25.54
2022-08-02T11:49:37.260Z,25.73
2022-08-02T11:50:37.186Z,25.87
2022-08-02T11:51:37.207Z,25.99
2022-08-02T11:52:37.237Z,25.27
2022-08-02T11:53:37.357Z,25.50
2022-08-02T11:54:37.277Z,25.62
2022-08-02T11:55:37.352Z,25.64
2022-08-02T11:56:37.373Z,25.94
2022-08-02T11:58:03.272Z,25.87
2022-08-02T11:58:37.372Z,25.88
2022-08-02T11:59:37.389Z,25.52
2022-08-02T12:00:37.416Z,25.21
2022-08-02T12:01:46.175Z,25.38
2022-08-02T12:02:37.462Z,25.58
2022-08-02T12:03:37.668Z,26.12
2022-08-02T12:04:37.511Z,26.72
2022-08-02T12:06:05.261Z,26.33
2022-08-02T12:06:37.552Z,25.95
2022-08-02T12:07:37.583Z,25.17
2022-08-02T12:08:37.600Z,25.50
2022-08-02T12:09:41.103Z,25.83
2022-08-02T12:10:37.645Z,25.98
2022-08-02T12:11:38.981Z,26.07
2022-08-02T12:12:37.698Z,26.44
2022-08-02T12:13:37.720Z,26.73
2022-08-02T12:14:37.742Z,26.02
2022-08-02T12:15:37.767Z,26.06
2022-08-02T12:16:37.792Z,26.33
2022-08-02T12:17:37.819Z,26.63
2022-08-02T12:18:37.848Z,26.47
2022-08-02T12:19:37.863Z,26.07
2022-08-02T12:20:37.891Z,26.47
2022-08-02T12:21:37.909Z,25.82
2022-08-02T12:22:41.802Z,25.99
2022-08-02T12:23:37.954Z,26.62
2022-08-02T12:24:37.981Z,26.44
2022-08-02T12:25:38.006Z,25.95
2022-08-02T12:26:38.036Z,25.92
2022-08-02T12:27:38.083Z,25.94
2022-08-02T12:28:38.076Z,26.47
2022-08-02T12:29:57.774Z,26.33
2022-08-02T12:30:38.123Z,26.10
2022-08-02T12:31:38.154Z,25.95
2022-08-02T12:32:38.180Z,25.85
2022-08-02T12:33:39.443Z,25.58
2022-08-02T12:34:38.228Z,25.69
2022-08-02T12:35:38.248Z,26.07
2022-08-02T12:36:38.274Z,26.77
2022-08-02T12:37:38.299Z,26.15
2022-08-02T12:38:38.324Z,26.07
2022-08-02T12:39:38.350Z,26.30
2022-08-02T12:40:38.372Z,26.66
2022-08-02T12:41:38.399Z,26.82
2022-08-02T12:42:38.422Z,26.29
2022-08-02T12:43:38.444Z,26.43
2022-08-02T12:44:38.467Z,26.40
2022-08-02T12:45:40.698Z,26.07
2022-08-02T12:46:42.261Z,26.10
2022-08-02T12:47:38.542Z,26.47
2022-08-02T12:48:48.171Z,26.57
2022-08-02T12:49:38.617Z,25.90
2022-08-02T12:50:38.619Z,26.33
2022-08-02T12:51:51.019Z,25.97
2022-08-02T12:52:38.665Z,25.82